createdAt,value
2018-02-21T00:07:46.462Z,0
2018-02-21T00:17:46.500Z,0
2018-02-21T00:27:46.508Z,0
2018-02-21T00:37:46.503Z,0
2018-02-21T00:47:46.506Z,0
2018-02-21T00:57:46.820Z,0
2018-02-21T01:07:46.477Z,0
2018-02-21T01:17:46.474Z,0
2018-02-21T01:27:46.509Z,0
2018-02-21T01:37:46.506Z,0
2018-02-21T01:47:46.583Z,0
2018-02-21T01:57:46.545Z,0
2018-02-21T02:07:46.599Z,0
2018-02-21T02:17:46.506Z,0
2018-02-21T02:27:46.574Z,0
2018-02-21T02:37:46.563Z,0
2018-02-21T02:47:46.531Z,0
2018-02-21T02:57:46.591Z,0
2018-02-21T03:07:46.612Z,0
2018-02-21T03:17:46.615Z,0
2018-02-21T03:27:46.615Z,0
2018-02-21T03:37:46.625Z,0
2018-02-21T03:47:46.611Z,0
2018-02-21T03:57:46.713Z,0
2018-02-21T04:07:46.618Z,0
2018-02-21T04:17:46.691Z,0
2018-02-21T04:27:46.616Z,0
2018-02-21T04:37:46.610Z,0
2018-02-21T04:47:46.650Z,0
2018-02-21T04:57:46.647Z,0
2018-02-21T05:07:46.692Z,0
2018-02-21T05:17:46.676Z,0
2018-02-21T05:27:46.715Z,0
2018-02-21T05:37:46.691Z,0
2018-02-21T05:47:46.638Z,0
2018-02-21T05:57:46.679Z,0
2018-02-21T06:07:46.794Z,0
2018-02-21T06:17:46.717Z,0
2018-02-21T06:27:46.676Z,0
2018-02-21T06:37:46.784Z,5
2018-02-21T06:47:46.773Z,10
2018-02-21T06:57:46.805Z,20
2018-02-21T07:07:46.932Z,30
2018-02-21T07:17:46.852Z,35
2018-02-21T07:27:46.826Z,40
2018-02-21T07:37:46.758Z,50
2018-02-21T07:47:46.775Z,55
2018-02-21T07:57:46.766Z,60
2018-02-21T08:07:46.778Z,65
2018-02-21T08:17:47.168Z,70
2018-02-21T08:27:46.829Z,80
2018-02-21T08:37:46.774Z,85
2018-02-21T08:47:46.906Z,85
2018-02-21T08:57:46.890Z,85
2018-02-21T09:07:46.769Z,85
2018-02-21T09:17:46.860Z,90
2018-02-21T09:27:46.792Z,85
2018-02-21T09:37:46.831Z,85
2018-02-21T09:47:46.843Z,95
2018-02-21T09:57:46.922Z,90
2018-02-21T10:07:46.833Z,90
2018-02-21T10:17:46.958Z,95
2018-02-21T10:27:46.859Z,95
2018-02-21T10:37:46.951Z,100
2018-02-21T10:47:46.940Z,100
2018-02-21T10:57:46.953Z,100
2018-02-21T11:07:46.915Z,100
2018-02-21T11:17:46.902Z,100
2018-02-21T11:27:46.937Z,105
2018-02-21T11:37:46.925Z,105
2018-02-21T11:47:46.997Z,105
2018-02-21T11:57:46.999Z,110
2018-02-21T12:07:46.964Z,135
2018-02-21T12:17:46.965Z,130
2018-02-21T12:27:47.056Z,140
2018-02-21T12:37:47.018Z,145
2018-02-21T12:47:47.034Z,115
2018-02-21T12:57:47.058Z,115
2018-02-21T13:07:47.101Z,100
2018-02-21T13:17:47.099Z,95
2018-02-21T13:27:46.996Z,105
2018-02-21T13:37:47.106Z,105
2018-02-21T13:47:47.037Z,100
2018-02-21T13:57:47.050Z,100
2018-02-21T14:07:47.010Z,100
2018-02-21T14:17:47.165Z,90
2018-02-21T14:27:47.057Z,90
2018-02-21T14:37:47.153Z,85
2018-02-21T14:47:47.083Z,80
2018-02-21T14:57:47.173Z,75
2018-02-21T15:07:47.129Z,75
2018-02-21T15:17:47.164Z,70
2018-02-21T15:27:47.145Z,70
2018-02-21T15:37:47.246Z,70
2018-02-21T15:47:47.206Z,60
2018-02-21T15:57:47.386Z,50
2018-02-21T16:07:47.176Z,45
2018-02-21T16:17:47.247Z,30
2018-02-21T16:27:47.331Z,20
2018-02-21T16:37:47.180Z,15
2018-02-21T16:47:47.246Z,5
2018-02-21T16:57:47.231Z,0
2018-02-21T17:07:47.408Z,0
2018-02-21T17:17:47.330Z,0
2018-02-21T17:27:47.329Z,0
2018-02-21T17:37:47.447Z,0
2018-02-21T17:47:47.155Z,0
2018-02-21T17:57:47.311Z,0
2018-02-21T18:07:47.892Z,0
2018-02-21T18:17:47.275Z,0
2018-02-21T18:27:47.227Z,0
2018-02-21T18:37:47.361Z,0
2018-02-21T18:47:47.241Z,0
2018-02-21T18:57:47.196Z,0
2018-02-21T19:07:47.301Z,0
2018-02-21T19:17:47.306Z,0
2018-02-21T19:27:47.312Z,0
2018-02-21T19:37:47.614Z,0
2018-02-21T19:47:47.483Z,0
2018-02-21T19:57:47.329Z,0
2018-02-21T20:07:47.332Z,0
2018-02-21T20:17:47.318Z,0
2018-02-21T20:27:47.368Z,0
2018-02-21T20:37:47.388Z,0
2018-02-21T20:47:47.436Z,0
2018-02-21T20:57:47.384Z,0
2018-02-21T21:07:47.372Z,0
2018-02-21T21:17:47.903Z,0
2018-02-21T21:27:47.473Z,0
2018-02-21T21:37:47.393Z,0
2018-02-21T21:47:47.339Z,0
2018-02-21T21:57:47.593Z,0
2018-02-21T22:14:14.356Z,0
2018-02-21T22:17:47.362Z,0
2018-02-21T22:27:47.393Z,0
2018-02-21T22:48:34.795Z,0
2018-02-21T22:49:15.412Z,0
2018-02-21T22:59:15.329Z,0
2018-02-21T23:09:15.625Z,0
2018-02-21T23:19:15.397Z,0
2018-02-21T23:29:15.383Z,0
2018-02-21T23:39:15.325Z,0
2018-02-21T23:49:15.311Z,0
2018-02-21T23:59:15.323Z,0
